Time;durP1;ratioP1;P1;durP2;ratioP2;P2;SDS_P1;SDS_P2;PMS_P1;PMS_P2;Temp;Humidity;BMP_temperature;BMP_pressure;BME280_temperature;BME280_humidity;BME280_pressure;Samples;Min_cycle;Max_cycle;Signal;HPM_P1;HPM_P2
2021/11/16 00:01:20;;;;;;;95.57;33.15;;;;;;;5.55;100.00;102717.00;5010544;28;20022;-73
2021/11/16 00:03:45;;;;;;;88.53;33.00;;;;;;;5.54;100.00;102715.16;5011142;28;20079;-72
2021/11/16 00:06:11;;;;;;;94.72;33.00;;;;;;;5.52;100.00;102716.75;5015136;28;20038;-73
2021/11/16 00:08:36;;;;;;;90.05;33.13;;;;;;;5.45;100.00;102705.00;5012954;28;20021;-72
2021/11/16 00:11:03;;;;;;;94.97;34.78;;;;;;;5.42;100.00;102711.72;5010188;28;20026;-72
2021/11/16 00:13:28;;;;;;;97.40;33.63;;;;;;;5.40;100.00;102712.53;5027041;28;20018;-72
2021/11/16 00:15:55;;;;;;;97.45;33.53;;;;;;;5.39;100.00;102704.59;5012744;28;20477;-72
2021/11/16 00:18:26;;;;;;;81.65;32.92;;;;;;;5.39;100.00;102700.25;5012348;28;20063;-73
2021/11/16 00:20:52;;;;;;;90.32;32.53;;;;;;;5.38;100.00;102698.44;5006120;28;20034;-73
2021/11/16 00:23:19;;;;;;;85.97;31.38;;;;;;;5.38;100.00;102698.44;5013210;28;20076;-73
2021/11/16 00:25:46;;;;;;;88.22;32.35;;;;;;;5.37;100.00;102704.50;5012354;28;20044;-73
2021/11/16 00:28:12;;;;;;;87.38;32.53;;;;;;;5.33;100.00;102705.09;5004615;28;20058;-73
2021/11/16 00:30:39;;;;;;;80.43;31.33;;;;;;;5.32;100.00;102691.94;5008849;28;20137;-73
2021/11/16 00:33:05;;;;;;;88.35;32.45;;;;;;;5.36;100.00;102687.00;5011564;28;20132;-72
2021/11/16 00:35:31;;;;;;;85.72;31.33;;;;;;;5.33;100.00;102681.59;5012425;28;20437;-73
2021/11/16 00:37:56;;;;;;;83.15;31.48;;;;;;;5.31;100.00;102683.19;5012523;28;20025;-73
2021/11/16 00:40:22;;;;;;;85.65;33.63;;;;;;;5.30;100.00;102683.97;5015322;28;20053;-71
2021/11/16 00:42:50;;;;;;;90.75;33.80;;;;;;;5.26;100.00;102684.56;5012779;28;20037;-73
2021/11/16 00:45:15;;;;;;;78.00;29.30;;;;;;;5.25;100.00;102685.41;5012262;28;20116;-72
2021/11/16 00:47:42;;;;;;;75.75;30.27;;;;;;;5.28;100.00;102675.16;5012782;28;20514;-72
2021/11/16 00:50:09;;;;;;;87.63;31.40;;;;;;;5.27;100.00;102683.78;5011218;28;20030;-71
2021/11/16 00:52:34;;;;;;;73.05;29.35;;;;;;;5.31;100.00;102672.75;5011682;28;20037;-72
2021/11/16 00:55:00;;;;;;;77.53;29.70;;;;;;;5.29;100.00;102670.81;5017038;28;20026;-72
2021/11/16 00:57:25;;;;;;;83.88;31.25;;;;;;;5.27;100.00;102683.78;5016308;28;20081;-72
2021/11/16 00:59:50;;;;;;;81.07;31.05;;;;;;;5.24;100.00;102684.47;5011495;28;20033;-72
2021/11/16 01:02:16;;;;;;;75.28;29.08;;;;;;;5.23;100.00;102687.88;5011799;28;20030;-74
2021/11/16 01:04:48;;;;;;;91.47;31.40;;;;;;;5.23;100.00;102689.59;5012322;28;20041;-72
2021/11/16 01:07:15;;;;;;;87.55;32.28;;;;;;;5.24;100.00;102696.63;5011081;28;20155;-73
2021/11/16 01:09:40;;;;;;;86.18;31.83;;;;;;;5.22;100.00;102700.81;5011147;28;20025;-73
2021/11/16 01:12:06;;;;;;;85.30;31.75;;;;;;;5.23;100.00;102700.03;5015351;28;20048;-72
2021/11/16 01:14:31;;;;;;;91.85;31.25;;;;;;;5.22;100.00;102696.53;5013151;28;20082;-72
2021/11/16 01:16:57;;;;;;;88.93;32.55;;;;;;;5.19;100.00;102696.28;5016463;28;20026;-72
2021/11/16 01:19:23;;;;;;;94.10;34.13;;;;;;;5.20;100.00;102697.22;5016183;28;20054;-72
2021/11/16 01:21:48;;;;;;;90.32;32.55;;;;;;;5.17;100.00;102697.91;5019347;28;20112;-72
2021/11/16 01:24:14;;;;;;;95.13;34.22;;;;;;;5.15;100.00;102696.00;5011187;28;20110;-72
2021/11/16 01:26:43;;;;;;;91.70;33.20;;;;;;;5.11;100.00;102699.19;5011035;28;20033;-73
2021/11/16 01:29:08;;;;;;;96.20;33.15;;;;;;;5.07;100.00;102691.16;5010227;28;20030;-73
2021/11/16 01:31:34;;;;;;;84.90;32.85;;;;;;;5.06;100.00;102686.72;5010174;28;20045;-73
2021/11/16 01:34:01;;;;;;;92.05;32.97;;;;;;;5.06;100.00;102683.22;5008673;28;20025;-73
2021/11/16 01:36:27;;;;;;;90.43;34.03;;;;;;;5.07;100.00;102682.41;5010371;28;20080;-74
2021/11/16 01:38:55;;;;;;;84.32;31.10;;;;;;;5.03;100.00;102677.78;5010273;28;20038;-72
2021/11/16 01:41:22;;;;;;;87.70;32.58;;;;;;;5.02;100.00;102676.00;5017718;28;20032;-73
2021/11/16 01:43:48;;;;;;;92.65;32.60;;;;;;;5.00;100.00;102677.56;5017003;28;20107;-72
2021/11/16 01:46:16;;;;;;;89.45;34.05;;;;;;;4.99;100.00;102671.47;5019719;28;20389;-72
2021/11/16 01:48:49;;;;;;;92.35;32.42;;;;;;;5.04;100.00;102679.59;5014135;28;20025;-73
2021/11/16 01:51:15;;;;;;;96.70;33.03;;;;;;;5.03;100.00;102673.50;5018931;28;20030;-73
2021/11/16 01:53:41;;;;;;;86.18;32.50;;;;;;;5.02;100.00;102668.16;5018035;28;20080;-72
2021/11/16 01:56:07;;;;;;;90.30;34.70;;;;;;;5.02;100.00;102671.66;5016101;28;20034;-72
2021/11/16 01:58:33;;;;;;;91.68;31.17;;;;;;;5.04;100.00;102675.28;5017253;28;20041;-72
2021/11/16 02:00:58;;;;;;;99.30;33.13;;;;;;;5.07;100.00;102680.72;5018747;28;20462;-72
2021/11/16 02:03:24;;;;;;;86.82;31.05;;;;;;;5.08;100.00;102671.19;5017720;28;20030;-72
2021/11/16 02:05:55;;;;;;;92.03;33.42;;;;;;;5.07;100.00;102664.16;5016568;28;20026;-73
2021/11/16 02:08:22;;;;;;;89.72;32.60;;;;;;;5.03;100.00;102660.44;5017441;28;20474;-73
2021/11/16 02:10:50;;;;;;;82.68;30.73;;;;;;;5.01;100.00;102659.41;5016240;28;20135;-72
2021/11/16 02:13:20;;;;;;;91.90;32.58;;;;;;;4.99;100.00;102655.81;5017151;28;20057;-73
2021/11/16 02:15:50;;;;;;;89.22;32.35;;;;;;;4.99;100.00;102650.59;5010206;28;20429;-72
2021/11/16 02:18:17;;;;;;;88.22;32.90;;;;;;;4.99;100.00;102650.59;5015596;28;20116;-72
2021/11/16 02:20:48;;;;;;;99.90;35.90;;;;;;;4.98;100.00;102646.16;5014618;28;20059;-72
2021/11/16 02:23:14;;;;;;;91.68;32.88;;;;;;;4.99;100.00;102640.16;5017228;28;20028;-72
2021/11/16 02:25:40;;;;;;;94.57;34.75;;;;;;;5.02;100.00;102642.97;5017530;28;20492;-73
2021/11/16 02:28:06;;;;;;;92.57;33.08;;;;;;;5.04;100.00;102649.19;5017180;28;20026;-73
2021/11/16 02:30:32;;;;;;;89.45;32.28;;;;;;;5.03;100.00;102636.03;5015653;28;20053;-74
2021/11/16 02:32:59;;;;;;;84.13;31.67;;;;;;;5.02;100.00;102626.44;5009700;28;20465;-73
2021/11/16 02:35:25;;;;;;;80.75;27.95;;;;;;;5.01;100.00;102628.09;5015357;28;20065;-73
2021/11/16 02:37:51;;;;;;;81.25;28.98;;;;;;;5.04;100.00;102625.69;5015281;28;20057;-73
2021/11/16 02:40:16;;;;;;;81.60;29.88;;;;;;;5.02;100.00;102627.31;5016602;28;20099;-72
2021/11/16 02:42:43;;;;;;;75.28;27.45;;;;;;;5.00;100.00;102618.47;5016341;28;20025;-73
2021/11/16 02:45:09;;;;;;;80.63;29.65;;;;;;;5.00;100.00;102618.47;5017007;28;20022;-73
2021/11/16 02:47:35;;;;;;;78.68;29.52;;;;;;;5.00;100.00;102623.69;5016696;28;20029;-73
2021/11/16 02:50:01;;;;;;;68.18;28.55;;;;;;;4.98;100.00;102620.09;5016036;28;20067;-72
2021/11/16 02:52:27;;;;;;;78.93;28.27;;;;;;;5.00;100.00;102622.78;4995808;28;20030;-72
2021/11/16 02:54:54;;;;;;;80.95;28.92;;;;;;;4.99;100.00;102624.50;5014502;28;20076;-73
2021/11/16 02:57:20;;;;;;;76.05;29.27;;;;;;;4.99;100.00;102640.16;5014551;28;20054;-74
2021/11/16 02:59:46;;;;;;;75.13;29.73;;;;;;;5.04;100.00;102641.34;5015023;28;20478;-73
2021/11/16 03:02:12;;;;;;;72.82;27.05;;;;;;;5.03;100.00;102630.81;5014303;28;20087;-73
2021/11/16 03:04:45;;;;;;;72.88;27.02;;;;;;;5.03;100.00;102636.03;5013640;28;20075;-73
2021/11/16 03:07:12;;;;;;;80.28;31.77;;;;;;;5.04;100.00;102628.31;5013820;28;20397;-72
2021/11/16 03:09:38;;;;;;;79.97;30.95;;;;;;;5.01;100.00;102633.31;5013320;28;20175;-72
2021/11/16 03:12:04;;;;;;;82.47;31.55;;;;;;;5.02;100.00;102627.31;5015812;28;20088;-72
2021/11/16 03:14:30;;;;;;;80.53;30.88;;;;;;;5.01;100.00;102630.72;5012157;28;20046;-72
2021/11/16 03:16:56;;;;;;;79.32;30.13;;;;;;;5.00;100.00;102635.84;5011944;28;20079;-72
2021/11/16 03:19:22;;;;;;;81.60;29.50;;;;;;;4.99;100.00;102627.13;5013974;28;20046;-73
2021/11/16 03:21:59;;;;;;;80.95;28.45;;;;;;;4.97;100.00;102620.88;5011250;28;20025;-72
2021/11/16 03:24:29;;;;;;;74.75;29.63;;;;;;;4.98;100.00;102629.59;5013695;28;20095;-73
2021/11/16 03:26:54;;;;;;;81.47;28.48;;;;;;;4.95;100.00;102627.72;5023739;28;20020;-73
2021/11/16 03:29:24;;;;;;;76.30;28.85;;;;;;;4.99;100.00;102636.63;5014678;28;20030;-73
2021/11/16 03:32:06;;;;;;;78.43;30.38;;;;;;;4.98;100.00;102632.19;5013006;28;20037;-72
2021/11/16 03:34:32;;;;;;;77.35;27.67;;;;;;;4.99;100.00;102624.50;5012306;28;20033;-73
2021/11/16 03:36:58;;;;;;;76.88;29.05;;;;;;;4.99;100.00;102629.72;5013566;28;20458;-72
2021/11/16 03:39:24;;;;;;;79.78;29.52;;;;;;;4.98;100.00;102620.09;5013576;28;20060;-73
2021/11/16 03:41:50;;;;;;;82.00;29.38;;;;;;;4.98;100.00;102619.16;5011512;28;20041;-72
2021/11/16 03:44:15;;;;;;;87.03;30.33;;;;;;;5.02;100.00;102629.03;5009036;28;20022;-72
2021/11/16 03:46:41;;;;;;;76.82;30.20;;;;;;;5.04;100.00;102643.97;5014673;28;20041;-73
2021/11/16 03:49:06;;;;;;;77.43;28.98;;;;;;;5.03;100.00;102647.41;5011625;28;20137;-72
2021/11/16 03:51:32;;;;;;;76.30;30.90;;;;;;;5.00;100.00;102639.34;5011619;28;20030;-74
2021/11/16 03:53:57;;;;;;;74.32;28.50;;;;;;;5.00;100.00;102641.94;5011213;28;20032;-73
2021/11/16 03:56:23;;;;;;;74.03;27.77;;;;;;;5.01;100.00;102641.16;5013052;28;20374;-72
2021/11/16 03:58:48;;;;;;;81.30;29.83;;;;;;;5.00;100.00;102644.56;5011734;28;20112;-73
2021/11/16 04:01:16;;;;;;;80.97;31.70;;;;;;;4.98;100.00;102640.94;5011396;28;20105;-72
2021/11/16 04:03:43;;;;;;;85.28;31.55;;;;;;;4.98;100.00;102640.03;5013621;28;20079;-73
2021/11/16 04:06:09;;;;;;;83.90;29.50;;;;;;;4.98;100.00;102643.56;5011625;28;20024;-72
2021/11/16 04:08:35;;;;;;;79.95;28.63;;;;;;;5.00;100.00;102644.56;5011490;28;20036;-74
2021/11/16 04:11:01;;;;;;;84.72;30.15;;;;;;;4.99;100.00;102645.38;5007969;28;20030;-73
2021/11/16 04:13:26;;;;;;;92.28;32.00;;;;;;;5.00;100.00;102651.50;5012808;28;20025;-73
2021/11/16 04:15:52;;;;;;;90.53;31.95;;;;;;;5.03;100.00;102652.63;5013546;28;20038;-73
2021/11/16 04:18:20;;;;;;;74.30;30.63;;;;;;;5.06;100.00;102651.91;5011533;28;20042;-73
2021/11/16 04:20:48;;;;;;;87.53;32.75;;;;;;;5.07;100.00;102649.41;5023541;28;20029;-73
2021/11/16 04:23:16;;;;;;;77.63;29.65;;;;;;;5.03;100.00;102652.63;5010896;28;20385;-73
2021/11/16 04:25:43;;;;;;;79.53;30.45;;;;;;;4.96;100.00;102647.75;5013010;28;20028;-73
2021/11/16 04:28:11;;;;;;;82.03;30.63;;;;;;;4.96;100.00;102645.16;5012253;28;20025;-73
2021/11/16 04:30:37;;;;;;;82.20;30.98;;;;;;;4.99;100.00;102649.66;5012231;28;20080;-73
2021/11/16 04:33:05;;;;;;;79.95;29.85;;;;;;;4.98;100.00;102648.78;5010798;28;20097;-74
2021/11/16 04:35:30;;;;;;;87.63;30.10;;;;;;;4.92;100.00;102640.53;5010065;28;20553;-74
2021/11/16 04:37:58;;;;;;;78.18;32.42;;;;;;;4.93;100.00;102638.84;5010737;28;20022;-73
2021/11/16 04:40:31;;;;;;;76.85;29.83;;;;;;;4.90;100.00;102640.41;5012109;28;20060;-71
2021/11/16 04:42:58;;;;;;;81.75;29.52;;;;;;;4.91;100.00;102633.50;5012314;28;20033;-71
2021/11/16 04:45:24;;;;;;;74.35;27.42;;;;;;;4.90;100.00;102634.31;5011916;28;20029;-71
2021/11/16 04:47:56;;;;;;;74.65;27.83;;;;;;;4.88;99.61;102634.22;5012205;28;20036;-72
2021/11/16 04:51:13;;;;;;;75.90;27.83;;;;;;;4.89;99.60;102632.50;5012510;28;20029;-72
2021/11/16 04:53:51;;;;;;;78.57;29.20;;;;;;;4.87;99.67;102631.47;5007455;28;20101;-72
2021/11/16 05:04:12;;;;;;;89.20;29.95;;;;;;;4.88;100.00;102625.47;5011492;28;20116;-73
2021/11/16 05:06:37;;;;;;;76.00;27.58;;;;;;;4.87;100.00;102623.63;5010085;28;20049;-72
2021/11/16 05:09:03;;;;;;;78.00;27.98;;;;;;;4.83;100.00;102617.34;5011331;28;20136;-72
2021/11/16 05:11:28;;;;;;;81.70;29.83;;;;;;;4.83;100.00;102616.41;5011955;28;20113;-73
2021/11/16 05:13:53;;;;;;;79.38;29.55;;;;;;;4.85;100.00;102617.44;5009695;28;20044;-72
2021/11/16 05:16:21;;;;;;;73.93;27.85;;;;;;;4.83;100.00;102622.53;5010041;28;20122;-72
2021/11/16 05:18:47;;;;;;;88.70;29.92;;;;;;;4.85;100.00;102617.44;5010935;28;20050;-73
2021/11/16 05:21:14;;;;;;;82.55;30.00;;;;;;;4.89;100.00;102616.84;5011805;28;20524;-73
2021/11/16 05:23:48;;;;;;;83.50;30.02;;;;;;;4.90;100.00;102613.44;5008674;28;20026;-72
2021/11/16 05:26:13;;;;;;;79.22;29.40;;;;;;;4.92;100.00;102614.44;5011331;28;20029;-72
2021/11/16 05:28:39;;;;;;;81.03;29.70;;;;;;;4.94;100.00;102607.63;5014317;28;20156;-73
2021/11/16 05:31:05;;;;;;;78.78;30.42;;;;;;;4.93;100.00;102608.41;5003095;28;20032;-73
2021/11/16 05:33:31;;;;;;;66.60;25.88;;;;;;;4.95;100.00;102612.06;5008994;28;20070;-73
2021/11/16 05:36:01;;;;;;;65.85;25.23;;;;;;;4.91;100.00;102607.44;5008433;28;20459;-72
2021/11/16 05:38:30;;;;;;;68.93;26.42;;;;;;;4.93;100.00;102611.03;5010937;28;20032;-73
2021/11/16 05:40:56;;;;;;;69.90;25.50;;;;;;;4.94;100.00;102620.69;5009544;28;20026;-73
2021/11/16 05:43:22;;;;;;;73.55;26.23;;;;;;;4.91;100.00;102623.09;5012314;28;20068;-72
2021/11/16 05:45:48;;;;;;;69.50;24.85;;;;;;;4.91;100.00;102620.47;5011992;28;20088;-72
2021/11/16 05:48:14;;;;;;;67.55;25.50;;;;;;;4.89;100.00;102619.44;5011399;28;20026;-72
2021/11/16 05:50:40;;;;;;;69.30;26.50;;;;;;;4.90;100.00;102618.66;5010167;28;20037;-72
2021/11/16 05:53:08;;;;;;;70.32;26.55;;;;;;;4.90;100.00;102606.50;5012243;28;20061;-72
2021/11/16 05:55:34;;;;;;;66.10;26.50;;;;;;;4.92;100.00;102608.31;5009927;28;20427;-71
2021/11/16 05:58:00;;;;;;;74.75;25.98;;;;;;;4.92;100.00;102608.31;5009569;28;20057;-73
2021/11/16 06:00:26;;;;;;;77.55;27.58;;;;;;;4.89;100.00;102612.50;5009331;28;20121;-73
2021/11/16 06:02:52;;;;;;;80.15;26.65;;;;;;;4.90;100.00;102618.66;5008935;28;20038;-72
2021/11/16 06:05:18;;;;;;;75.93;29.05;;;;;;;4.87;100.00;102608.91;5009865;28;20470;-72
2021/11/16 06:07:43;;;;;;;73.43;26.55;;;;;;;4.85;100.00;102609.59;5010557;28;20168;-73
2021/11/16 06:10:09;;;;;;;76.72;27.13;;;;;;;4.84;100.00;102610.41;5009503;28;20488;-73
2021/11/16 06:12:34;;;;;;;73.75;28.20;;;;;;;4.84;100.00;102611.31;5007755;28;20091;-73
2021/11/16 06:15:00;;;;;;;75.13;27.00;;;;;;;4.86;100.00;102616.63;5011034;28;20030;-71
2021/11/16 06:17:25;;;;;;;75.82;26.42;;;;;;;4.83;100.00;102603.38;5012660;28;20034;-75
2021/11/16 06:19:52;;;;;;;67.28;24.92;;;;;;;4.85;100.00;102600.06;5012327;28;20120;-74
2021/11/16 06:22:17;;;;;;;68.20;24.15;;;;;;;4.84;100.00;102597.34;5012635;28;20117;-74
2021/11/16 06:24:43;;;;;;;70.78;25.48;;;;;;;4.82;99.28;102589.44;5011359;28;20133;-74
2021/11/16 06:27:08;;;;;;;72.15;25.50;;;;;;;4.79;98.46;102588.31;5009618;28;20026;-74
2021/11/16 06:29:34;;;;;;;76.22;27.80;;;;;;;4.79;99.32;102585.69;5016982;28;20021;-74
2021/11/16 06:32:00;;;;;;;84.90;29.60;;;;;;;4.79;100.00;102598.75;5016084;28;20022;-77
2021/11/16 06:34:26;;;;;;;76.28;28.10;;;;;;;4.78;100.00;102586.53;5015570;28;20037;-76
2021/11/16 06:36:53;;;;;;;64.88;25.52;;;;;;;4.77;100.00;102596.03;5015808;28;20072;-76
2021/11/16 06:39:21;;;;;;;74.20;25.10;;;;;;;4.77;99.85;102589.91;5015610;28;20041;-75
2021/11/16 06:41:47;;;;;;;74.68;26.92;;;;;;;4.76;99.89;102599.47;5016021;28;20037;-74
2021/11/16 06:44:17;;;;;;;75.07;28.15;;;;;;;4.75;99.67;102591.50;5012438;28;20026;-75
2021/11/16 06:46:43;;;;;;;69.20;26.63;;;;;;;4.76;100.00;102593.31;5015441;28;20040;-75
2021/11/16 06:49:11;;;;;;;63.47;26.70;;;;;;;4.76;98.70;102593.31;5015180;28;20030;-75
2021/11/16 06:51:38;;;;;;;69.57;27.05;;;;;;;4.73;98.10;102592.31;5015967;28;20034;-76
2021/11/16 06:54:16;;;;;;;70.03;26.33;;;;;;;4.70;98.76;102586.88;5014088;28;20033;-76
2021/11/16 06:56:45;;;;;;;77.18;26.38;;;;;;;4.72;99.26;102587.91;5014979;28;20037;-75
2021/11/16 06:59:11;;;;;;;63.83;24.80;;;;;;;4.75;98.71;102581.06;5010275;28;20040;-74
2021/11/16 07:01:37;;;;;;;73.30;25.08;;;;;;;4.70;98.03;102579.06;5015476;28;20033;-73
2021/11/16 07:04:08;;;;;;;68.85;26.20;;;;;;;4.70;98.31;102584.28;5013810;28;20373;-75
2021/11/16 07:06:35;;;;;;;67.97;26.40;;;;;;;4.68;98.83;102595.41;5014924;28;20018;-75
2021/11/16 07:09:02;;;;;;;66.82;24.20;;;;;;;4.68;98.58;102591.09;5014376;28;20394;-75
2021/11/16 07:11:27;;;;;;;72.25;26.38;;;;;;;4.68;98.85;102596.31;5014138;28;20033;-76
2021/11/16 07:13:58;;;;;;;72.30;26.63;;;;;;;4.67;99.06;102593.63;5014224;28;20030;-75
2021/11/16 07:16:28;;;;;;;77.15;27.52;;;;;;;4.67;99.22;102586.69;5016005;28;20038;-75
2021/11/16 07:18:56;;;;;;;68.50;25.88;;;;;;;4.70;100.00;102591.22;5016243;28;20477;-76
2021/11/16 07:21:25;;;;;;;78.63;27.95;;;;;;;4.71;100.00;102590.41;5016573;28;20085;-74
2021/11/16 07:24:11;;;;;;;73.93;26.95;;;;;;;4.71;100.00;102596.53;5014752;28;20028;-74
2021/11/16 07:26:39;;;;;;;70.70;24.38;;;;;;;4.70;99.40;102589.50;5012034;28;20029;-75
2021/11/16 07:29:15;;;;;;;72.22;26.70;;;;;;;4.70;99.33;102588.59;5013143;28;20125;-75
2021/11/16 07:31:43;;;;;;;69.15;27.75;;;;;;;4.72;100.00;102592.19;5013534;28;20077;-73
2021/11/16 07:34:18;;;;;;;73.03;26.20;;;;;;;4.71;99.84;102596.53;5014824;28;20466;-73
2021/11/16 07:36:58;;;;;;;76.90;28.20;;;;;;;4.71;99.55;102593.03;5012496;28;20030;-74
2021/11/16 07:39:27;;;;;;;74.18;25.60;;;;;;;4.73;99.59;102594.94;5014021;28;20026;-73
2021/11/16 07:42:04;;;;;;;69.95;26.02;;;;;;;4.73;99.15;102583.59;5012088;28;20042;-74
2021/11/16 07:44:29;;;;;;;69.93;26.33;;;;;;;4.68;98.64;102585.88;5009561;28;20156;-74
2021/11/16 07:46:56;;;;;;;73.10;28.63;;;;;;;4.70;99.45;102589.50;5011906;28;20113;-73
2021/11/16 07:49:22;;;;;;;69.75;26.52;;;;;;;4.73;98.81;102589.72;5012156;28;20033;-74
2021/11/16 07:51:48;;;;;;;64.85;25.20;;;;;;;4.73;98.63;102596.63;5007196;28;20034;-74
2021/11/16 07:54:20;;;;;;;73.85;27.02;;;;;;;4.72;100.00;102600.03;5012827;28;20022;-73
2021/11/16 07:56:46;;;;;;;76.05;27.10;;;;;;;4.73;100.00;102604.44;5010504;28;20041;-74
2021/11/16 07:59:11;;;;;;;69.60;26.60;;;;;;;4.75;99.31;102594.13;5013672;28;20398;-75
2021/11/16 08:04:18;;;;;;;73.75;25.45;;;;;;;4.78;99.85;102591.75;5005694;28;20040;-75
2021/11/16 08:06:55;;;;;;;69.35;24.20;;;;;;;4.79;99.31;102590.91;5009356;28;20014;-73
2021/11/16 08:14:57;;;;;;;71.38;27.42;;;;;;;4.78;98.89;102586.53;5013369;28;20042;-73
2021/11/16 08:17:28;;;;;;;61.72;23.95;;;;;;;4.77;98.68;102582.09;5013271;28;20108;-73
2021/11/16 08:19:59;;;;;;;65.88;24.00;;;;;;;4.79;98.82;102583.09;5010783;28;20042;-77
2021/11/16 08:22:24;;;;;;;73.60;24.98;;;;;;;4.77;98.93;102579.50;5013907;28;20025;-77
2021/11/16 08:24:50;;;;;;;67.32;24.85;;;;;;;4.77;100.00;102589.91;5012733;28;20049;-74
2021/11/16 08:27:23;;;;;;;81.97;26.85;;;;;;;4.78;100.00;102578.69;5012583;28;20026;-74
2021/11/16 08:29:57;;;;;;;64.33;24.50;;;;;;;4.78;100.00;102576.09;5012573;28;20432;-74
2021/11/16 08:32:27;;;;;;;70.10;23.58;;;;;;;4.79;99.78;102577.88;5011890;28;20036;-75
2021/11/16 08:34:56;;;;;;;70.22;25.05;;;;;;;4.80;99.05;102582.31;5012117;28;20026;-73
2021/11/16 08:37:26;;;;;;;65.57;23.42;;;;;;;4.81;99.66;102577.19;5012231;28;20022;-73
2021/11/16 08:39:57;;;;;;;73.20;23.38;;;;;;;4.83;99.38;102575.59;5013250;28;20135;-73
2021/11/16 08:42:27;;;;;;;66.10;25.77;;;;;;;4.85;99.06;102575.69;5025720;28;20041;-72
2021/11/16 08:45:03;;;;;;;62.08;22.80;;;;;;;4.85;99.03;102573.09;5013617;28;20040;-72
2021/11/16 08:47:53;;;;;;;61.33;22.38;;;;;;;4.88;98.85;102574.22;5012288;28;20026;-72
2021/11/16 08:50:22;;;;;;;68.32;24.40;;;;;;;4.88;98.67;102570.69;5026702;28;20029;-72
2021/11/16 08:52:47;;;;;;;64.65;23.88;;;;;;;4.87;97.98;102564.56;5013638;28;20036;-71
2021/11/16 08:55:18;;;;;;;66.32;24.73;;;;;;;4.88;99.09;102565.47;5012819;28;20389;-71
2021/11/16 08:57:46;;;;;;;69.93;24.65;;;;;;;4.88;98.57;102570.69;5011892;28;20537;-73
2021/11/16 09:00:33;;;;;;;62.05;24.05;;;;;;;4.89;98.76;102569.88;5012282;28;20116;-71
2021/11/16 09:03:17;;;;;;;67.68;25.58;;;;;;;4.92;98.42;102564.88;5013021;28;20489;-73
2021/11/16 09:05:45;;;;;;;63.10;23.58;;;;;;;4.93;98.23;102556.25;5012857;28;20025;-71
2021/11/16 09:08:20;;;;;;;66.75;24.90;;;;;;;4.91;97.91;102563.09;5012761;28;20034;-71
2021/11/16 09:10:48;;;;;;;67.55;23.42;;;;;;;4.93;97.47;102561.47;5010324;28;20441;-72
2021/11/16 09:13:16;;;;;;;64.25;24.20;;;;;;;4.92;97.69;102559.66;5012365;28;20072;-72
2021/11/16 09:15:48;;;;;;;61.97;22.00;;;;;;;4.92;97.67;102557.03;5011096;28;20033;-72
2021/11/16 09:18:26;;;;;;;65.75;23.90;;;;;;;4.94;97.04;102558.06;5011839;28;20049;-73
2021/11/16 09:21:10;;;;;;;56.05;20.35;;;;;;;4.95;96.35;102565.09;5009217;28;20036;-71
2021/11/16 09:23:51;;;;;;;66.47;21.83;;;;;;;4.96;96.69;102564.28;5008953;28;20434;-73
2021/11/16 09:29:02;;;;;;;63.80;23.38;;;;;;;4.93;96.65;102566.69;5006861;28;20133;-73
2021/11/16 09:31:35;;;;;;;64.72;23.17;;;;;;;4.95;96.53;102564.19;5011281;28;20392;-75
2021/11/16 09:34:20;;;;;;;61.90;24.50;;;;;;;4.93;96.50;102565.78;5025572;28;20045;-71
2021/11/16 09:36:57;;;;;;;68.43;24.88;;;;;;;4.95;97.14;102565.09;5010563;28;20500;-72
2021/11/16 09:39:29;;;;;;;59.17;24.35;;;;;;;4.95;96.93;102565.09;5010054;28;20026;-72
2021/11/16 09:42:02;;;;;;;59.35;23.42;;;;;;;4.96;96.12;102564.28;5011809;28;20040;-73
2021/11/16 09:44:43;;;;;;;62.53;23.40;;;;;;;5.01;96.73;102555.06;5010190;28;20030;-73
2021/11/16 09:47:17;;;;;;;52.10;21.35;;;;;;;5.04;96.73;102555.25;5025021;28;20142;-73
2021/11/16 09:49:48;;;;;;;57.75;22.40;;;;;;;5.07;96.25;102538.91;5011938;28;20030;-72
2021/11/16 09:52:21;;;;;;;54.80;21.08;;;;;;;5.12;96.25;102541.84;5012805;28;20038;-73
2021/11/16 09:54:46;;;;;;;55.42;19.45;;;;;;;5.16;96.13;102538.63;5010950;28;20049;-72
2021/11/16 09:57:13;;;;;;;55.80;21.10;;;;;;;5.18;94.76;102537.00;5011315;28;20026;-73
2021/11/16 09:59:44;;;;;;;54.10;20.80;;;;;;;5.22;94.57;102536.41;5010471;28;20378;-73
2021/11/16 10:02:25;;;;;;;49.22;19.13;;;;;;;5.23;94.80;102535.59;5014705;28;20030;-73
2021/11/16 10:04:53;;;;;;;59.33;20.92;;;;;;;5.27;94.16;102532.38;5015426;28;20477;-72
2021/11/16 10:07:21;;;;;;;54.83;22.30;;;;;;;5.26;94.95;102535.78;5013311;28;20083;-73
2021/11/16 10:09:49;;;;;;;50.20;21.00;;;;;;;5.28;94.61;102530.69;5009516;28;20045;-73
2021/11/16 10:12:16;;;;;;;54.53;21.60;;;;;;;5.33;94.76;102531.88;5014541;28;20490;-73
2021/11/16 10:14:44;;;;;;;58.00;21.35;;;;;;;5.36;94.48;102527.78;5015366;28;20029;-72
2021/11/16 10:17:09;;;;;;;54.42;21.42;;;;;;;5.36;93.83;102522.56;5015114;28;20033;-73
2021/11/16 10:19:35;;;;;;;57.45;21.38;;;;;;;5.32;93.30;102517.94;5008936;28;20502;-73
2021/11/16 10:22:00;;;;;;;57.25;22.52;;;;;;;5.31;93.81;102517.84;5011788;28;20033;-73
2021/11/16 10:24:32;;;;;;;60.97;22.08;;;;;;;5.28;94.88;102513.31;5011068;28;20038;-73
2021/11/16 10:27:23;;;;;;;54.22;23.30;;;;;;;5.28;94.83;102515.94;5011389;28;20022;-73
2021/11/16 10:30:12;;;;;;;63.70;24.98;;;;;;;5.32;95.40;102520.56;5003262;28;20050;-73
2021/11/16 10:32:39;;;;;;;64.75;25.13;;;;;;;5.33;95.45;102519.75;5013669;28;20389;-73
2021/11/16 10:35:07;;;;;;;68.53;25.30;;;;;;;5.34;95.67;102524.16;5009088;28;20045;-72
2021/11/16 10:37:47;;;;;;;68.78;24.88;;;;;;;5.40;96.57;102513.22;5013746;28;20101;-73
2021/11/16 10:40:13;;;;;;;67.50;24.60;;;;;;;5.40;96.35;102521.94;5014836;28;20029;-72
2021/11/16 10:42:55;;;;;;;70.32;26.10;;;;;;;5.42;96.17;102523.75;5013088;28;20117;-73
2021/11/16 10:45:23;;;;;;;72.72;25.52;;;;;;;5.44;97.16;102522.13;5015484;28;20211;-72
2021/11/16 10:47:49;;;;;;;74.85;28.00;;;;;;;5.47;97.48;102509.31;5011846;28;20026;-71
2021/11/16 10:50:18;;;;;;;76.50;27.35;;;;;;;5.48;96.94;102511.09;5015371;28;20120;-73
2021/11/16 10:53:10;;;;;;;74.55;26.15;;;;;;;5.46;97.47;102512.72;5012208;28;20022;-72
2021/11/16 10:55:52;;;;;;;64.35;26.05;;;;;;;5.44;97.01;102509.09;5012734;28;20539;-72
2021/11/16 10:58:20;;;;;;;67.35;25.23;;;;;;;5.42;97.09;102497.66;5013967;28;20034;-73
2021/11/16 11:00:54;;;;;;;69.22;25.75;;;;;;;5.40;97.41;102495.84;5015580;28;20132;-72
2021/11/16 11:03:23;;;;;;;67.75;26.10;;;;;;;5.39;97.36;102493.13;5016368;28;20062;-73
2021/11/16 11:06:22;;;;;;;69.07;27.65;;;;;;;5.37;98.34;102490.44;5012403;28;20362;-74
2021/11/16 11:08:57;;;;;;;69.28;25.92;;;;;;;5.36;98.13;102486.00;4973906;28;20069;-74
2021/11/16 11:11:25;;;;;;;69.07;24.10;;;;;;;5.38;98.89;102475.66;5015088;28;20113;-73
2021/11/16 11:14:07;;;;;;;64.47;25.13;;;;;;;5.36;98.87;102477.28;5028829;28;20038;-73
2021/11/16 11:16:36;;;;;;;75.72;27.75;;;;;;;5.37;99.64;102474.78;5013330;28;20121;-74
2021/11/16 11:19:03;;;;;;;66.95;25.77;;;;;;;5.37;99.87;102474.78;5014133;28;20046;-75
2021/11/16 11:21:42;;;;;;;83.05;28.10;;;;;;;5.37;100.00;102466.00;5014525;28;20524;-73
2021/11/16 11:24:14;;;;;;;74.22;25.27;;;;;;;5.36;100.00;102467.75;5014176;28;20474;-73
2021/11/16 11:29:36;;;;;;;67.18;25.80;;;;;;;5.39;99.92;102464.41;5014480;28;20033;-74
2021/11/16 11:32:04;;;;;;;63.78;24.38;;;;;;;5.42;99.48;102456.78;5012155;28;20471;-73
2021/11/16 11:34:32;;;;;;;72.70;27.20;;;;;;;5.42;100.00;102448.94;5013754;28;20037;-74
2021/11/16 11:37:04;;;;;;;71.63;26.52;;;;;;;5.48;100.00;102448.44;5008558;28;20478;-73
2021/11/16 11:39:31;;;;;;;70.28;25.58;;;;;;;5.47;99.58;102444.03;5010569;28;20397;-72
2021/11/16 11:41:58;;;;;;;64.25;24.52;;;;;;;5.50;100.00;102445.09;5012288;28;20033;-74